createdAt,value
2018-04-26T00:00:33.928Z,101060.87
2018-04-26T00:02:59.996Z,101060.27
2018-04-26T00:05:26.120Z,101066.38
2018-04-26T00:07:52.142Z,101068.86
2018-04-26T00:10:18.179Z,101057.70
2018-04-26T00:12:44.381Z,101055.94
2018-04-26T00:15:10.441Z,101055.90
2018-04-26T00:17:36.570Z,101064.97
2018-04-26T00:20:02.567Z,101059.68
2018-04-26T00:22:28.565Z,101063.64
2018-04-26T00:24:54.649Z,101047.97
2018-04-26T00:27:20.660Z,101053.09
2018-04-26T00:29:46.668Z,101052.83
2018-04-26T00:32:12.807Z,101058.02
2018-04-26T00:34:38.967Z,101055.67
2018-04-26T00:37:04.984Z,101042.80
2018-04-26T00:39:31.204Z,101051.95
2018-04-26T00:41:57.200Z,101047.89
2018-04-26T00:44:23.263Z,101047.18
2018-04-26T00:46:49.286Z,101048.94
2018-04-26T00:49:15.312Z,101052.62
2018-04-26T00:51:53.356Z,101057.19
2018-04-26T00:54:19.358Z,101055.36
2018-04-26T00:56:45.355Z,101072.27
2018-04-26T00:59:11.384Z,101064.57
2018-04-26T01:01:37.417Z,101062.26
2018-04-26T01:04:03.409Z,101062.88
2018-04-26T01:06:29.449Z,101063.02
2018-04-26T01:08:55.496Z,101058.84
2018-04-26T01:11:21.489Z,101052.83
2018-04-26T01:13:47.586Z,101059.56
2018-04-26T01:16:13.696Z,101058.89
2018-04-26T01:18:39.680Z,101064.50
2018-04-26T01:21:05.713Z,101070.59
2018-04-26T01:23:31.716Z,101068.14
2018-04-26T01:25:57.737Z,101071.51
2018-04-26T01:28:23.786Z,101069.20
2018-04-26T01:30:49.783Z,101066.75
2018-04-26T01:33:15.796Z,101057.84
2018-04-26T01:35:41.856Z,101063.09
2018-04-26T01:38:07.895Z,101066.16
2018-04-26T01:40:33.904Z,101073.03
2018-04-26T01:43:00.028Z,101070.44
2018-04-26T01:45:26.980Z,101091.14
2018-04-26T01:47:52.979Z,101067.64
2018-04-26T01:50:19.164Z,101073.18
2018-04-26T01:52:46.116Z,101078.94
2018-04-26T01:55:12.160Z,101080.76
2018-04-26T01:57:38.156Z,101089.18
2018-04-26T02:00:04.179Z,101083.28
2018-04-26T02:02:31.109Z,101089.04
2018-04-26T02:04:57.137Z,101090.23
2018-04-26T02:07:23.251Z,101093.73
2018-04-26T02:09:49.261Z,101085.27
2018-04-26T02:12:15.262Z,101095.43
2018-04-26T02:14:41.266Z,101099.55
2018-04-26T02:17:07.272Z,101102.29
2018-04-26T02:19:33.314Z,101100.50
2018-04-26T02:21:59.357Z,101097.27
2018-04-26T02:24:25.394Z,101099.92
2018-04-26T02:26:51.421Z,101105.61
2018-04-26T02:29:17.404Z,101102.39
2018-04-26T02:31:43.417Z,101107.22
2018-04-26T02:34:09.438Z,101108.76
2018-04-26T02:36:35.622Z,101118.23
2018-04-26T02:39:01.695Z,101113.91
2018-04-26T02:41:27.697Z,101110.02
2018-04-26T02:43:53.733Z,101109.05
2018-04-26T02:46:19.813Z,101103.18
2018-04-26T02:48:45.801Z,101105.11
2018-04-26T02:51:11.830Z,101103.48
2018-04-26T02:53:37.874Z,101107.47
2018-04-26T02:56:03.872Z,101108.47
2018-04-26T02:58:30.063Z,101110.71
2018-04-26T03:00:56.102Z,101113.37
2018-04-26T03:03:22.129Z,101116.33
2018-04-26T03:05:48.256Z,101111.91
2018-04-26T03:08:14.433Z,101109.88
2018-04-26T03:10:40.864Z,101111.57
2018-04-26T03:13:06.949Z,101124.66
2018-04-26T03:15:33.052Z,101122.58
2018-04-26T03:17:59.120Z,101129.42
2018-04-26T03:20:25.275Z,101123.53
2018-04-26T03:22:51.286Z,101129.50
2018-04-26T03:25:17.391Z,101128.64
2018-04-26T03:27:43.427Z,101123.80
2018-04-26T03:30:09.522Z,101124.28
2018-04-26T03:32:35.558Z,101135.73
2018-04-26T03:35:01.554Z,101137.63
2018-04-26T03:37:27.632Z,101130.90
2018-04-26T03:39:53.598Z,101141.92
2018-04-26T03:42:19.668Z,101142.55
2018-04-26T03:44:45.681Z,101136.09
2018-04-26T03:47:11.713Z,101148.87
2018-04-26T03:49:37.726Z,101138.63
2018-04-26T03:52:03.761Z,101137.84
2018-04-26T03:54:29.769Z,101147.17
2018-04-26T03:56:55.770Z,101150.77
2018-04-26T03:59:21.767Z,101154.22
2018-04-26T04:01:59.928Z,101150.55
2018-04-26T04:04:37.984Z,101153.68
2018-04-26T04:07:04.057Z,101149.70
2018-04-26T04:09:30.079Z,101149.91
2018-04-26T04:11:56.122Z,101151.36
2018-04-26T04:14:22.189Z,101153.70
2018-04-26T04:16:48.304Z,101161.48
2018-04-26T04:19:14.426Z,101155.48
2018-04-26T04:21:40.442Z,101158.36
2018-04-26T04:24:06.454Z,101164.80
2018-04-26T04:26:32.495Z,101167.24
2018-04-26T04:28:58.590Z,101170.56
2018-04-26T04:31:24.593Z,101169.19
2018-04-26T04:33:50.683Z,101168.34
2018-04-26T04:36:16.700Z,101169.55
2018-04-26T04:38:42.796Z,101179.22
2018-04-26T04:41:08.815Z,101178.54
2018-04-26T04:43:34.894Z,101177.53
2018-04-26T04:46:01.077Z,101181.17
2018-04-26T04:48:27.154Z,101179.02
2018-04-26T04:50:53.178Z,101186.16
2018-04-26T04:53:19.270Z,101179.77
2018-04-26T04:55:45.293Z,101187.67
2018-04-26T04:58:11.340Z,101183.09
2018-04-26T05:00:37.368Z,101183.70
2018-04-26T05:03:03.386Z,101195.08
2018-04-26T05:05:29.400Z,101190.68
2018-04-26T05:07:55.384Z,101201.77
2018-04-26T05:10:21.405Z,101193.92
2018-04-26T05:12:47.439Z,101204.41
2018-04-26T05:15:13.448Z,101208.08
2018-04-26T05:17:39.465Z,101217.83
2018-04-26T05:20:05.473Z,101218.31
2018-04-26T05:22:31.469Z,101223.98
2018-04-26T05:24:57.501Z,101229.47
2018-04-26T05:27:23.501Z,101224.09
2018-04-26T05:29:49.870Z,101223.94
2018-04-26T05:32:15.861Z,101223.73
2018-04-26T05:34:41.943Z,101232.31
2018-04-26T05:37:08.012Z,101236.19
2018-04-26T05:39:34.043Z,101240.84
2018-04-26T05:42:00.061Z,101241.97
2018-04-26T05:44:26.208Z,101246.00
2018-04-26T05:46:52.314Z,101248.00
2018-04-26T05:49:18.370Z,101252.73
2018-04-26T05:51:45.158Z,101250.07
2018-04-26T05:54:11.169Z,101247.49
2018-04-26T05:56:37.240Z,101250.55
2018-04-26T05:59:03.260Z,101254.22
2018-04-26T06:01:29.292Z,101250.72
2018-04-26T06:03:55.305Z,101260.27
2018-04-26T06:06:21.354Z,101258.99
2018-04-26T06:08:47.361Z,101272.26
2018-04-26T06:11:13.365Z,101268.97
2018-04-26T06:13:39.389Z,101275.36
2018-04-26T06:16:05.398Z,101281.67
2018-04-26T06:18:31.445Z,101280.13
2018-04-26T06:20:57.455Z,101282.94
2018-04-26T06:23:23.515Z,101295.72
2018-04-26T06:25:49.560Z,101283.92
2018-04-26T06:28:15.577Z,101292.70
2018-04-26T06:30:41.609Z,101300.70
2018-04-26T06:33:07.628Z,101300.08
2018-04-26T06:35:33.693Z,101303.23
2018-04-26T06:37:59.781Z,101306.97
2018-04-26T06:40:25.802Z,101305.13
2018-04-26T06:42:51.848Z,101306.06
2018-04-26T06:45:17.860Z,101314.70
2018-04-26T06:47:44.050Z,101303.16
2018-04-26T06:50:10.046Z,101306.11
2018-04-26T06:52:36.208Z,101311.80
2018-04-26T06:55:02.201Z,101313.56
2018-04-26T06:57:28.214Z,101313.88
2018-04-26T06:59:54.322Z,101313.48
2018-04-26T07:02:20.399Z,101311.52
2018-04-26T07:04:47.037Z,101331.89
2018-04-26T07:07:13.039Z,101329.41
2018-04-26T07:09:39.030Z,101321.71
2018-04-26T07:12:05.274Z,101337.16
2018-04-26T07:14:31.241Z,101330.98
2018-04-26T07:16:57.299Z,101328.07
2018-04-26T07:19:24.244Z,101337.92
2018-04-26T07:21:50.384Z,101331.81
2018-04-26T07:24:16.454Z,101337.73
2018-04-26T07:26:43.432Z,101339.80
2018-04-26T07:29:10.094Z,101334.33
2018-04-26T07:31:36.148Z,101334.69
2018-04-26T07:34:02.150Z,101341.44
2018-04-26T07:36:28.169Z,101343.28
2018-04-26T07:38:54.203Z,101336.98
2018-04-26T07:41:20.288Z,101343.70
2018-04-26T07:44:54.017Z,101344.24
2018-04-26T07:47:20.070Z,101348.63
2018-04-26T07:49:46.142Z,101353.46
2018-04-26T07:52:12.202Z,101347.52
2018-04-26T07:54:38.262Z,101352.56
2018-04-26T07:57:04.833Z,101353.83
2018-04-26T07:59:31.044Z,101359.88
2018-04-26T08:01:57.166Z,101365.14
2018-04-26T08:04:23.202Z,101366.94
2018-04-26T08:06:49.326Z,101367.36
2018-04-26T08:09:15.322Z,101368.22
2018-04-26T08:11:41.386Z,101372.70
2018-04-26T08:14:07.424Z,101371.86
2018-04-26T08:16:33.441Z,101389.56
2018-04-26T08:18:59.481Z,101378.93
2018-04-26T08:21:25.556Z,101383.02
2018-04-26T08:23:51.613Z,101377.81
2018-04-26T08:26:17.640Z,101383.59
2018-04-26T08:28:43.728Z,101386.10
2018-04-26T08:31:09.768Z,101386.92
2018-04-26T08:33:35.830Z,101382.91
2018-04-26T08:36:01.896Z,101397.14
2018-04-26T08:38:28.050Z,101397.37
2018-04-26T08:40:54.119Z,101403.05
2018-04-26T08:43:20.198Z,101399.95
2018-04-26T08:45:46.295Z,101411.97
2018-04-26T08:48:12.320Z,101411.49
2018-04-26T08:50:38.389Z,101410.95
2018-04-26T08:53:04.536Z,101408.72
2018-04-26T08:55:30.575Z,101410.39
2018-04-26T08:57:56.622Z,101406.30
2018-04-26T09:00:22.649Z,101412.16
2018-04-26T09:02:48.720Z,101420.06
2018-04-26T09:05:14.816Z,101428.83
2018-04-26T09:07:40.865Z,101423.98
2018-04-26T09:10:06.910Z,101429.66
2018-04-26T09:12:33.035Z,101432.44
2018-04-26T09:14:59.133Z,101434.09
2018-04-26T09:17:25.282Z,101430.89
2018-04-26T09:19:51.605Z,101442.98
2018-04-26T09:22:17.641Z,101444.77
2018-04-26T09:24:43.693Z,101443.35
2018-04-26T09:27:09.700Z,101441.31
2018-04-26T09:29:35.804Z,101442.96
2018-04-26T09:32:01.894Z,101444.30
2018-04-26T09:34:28.008Z,101443.09
2018-04-26T09:36:54.387Z,101437.61
2018-04-26T09:39:20.424Z,101439.66
2018-04-26T09:41:47.175Z,101442.01
2018-04-26T09:44:13.186Z,101451.05
2018-04-26T09:46:39.329Z,101447.17
2018-04-26T09:49:05.347Z,101442.62
2018-04-26T09:51:31.382Z,101448.17
2018-04-26T09:53:57.574Z,101459.38
2018-04-26T09:56:23.606Z,101462.31
2018-04-26T09:58:49.605Z,101454.91
2018-04-26T10:01:19.541Z,101452.66
2018-04-26T10:03:45.650Z,101452.27
2018-04-26T10:06:26.527Z,101446.33
2018-04-26T10:08:52.908Z,101452.60
2018-04-26T10:11:18.875Z,101460.27
2018-04-26T10:13:45.555Z,101454.95
2018-04-26T10:16:11.707Z,101462.52
2018-04-26T10:18:37.729Z,101467.05
2018-04-26T10:21:03.844Z,101468.06
2018-04-26T10:23:29.909Z,101463.60
2018-04-26T10:25:56.209Z,101469.66
2018-04-26T10:28:22.283Z,101477.35
2018-04-26T10:30:48.916Z,101476.91
2018-04-26T10:33:15.335Z,101480.42
2018-04-26T10:35:41.352Z,101485.34
2018-04-26T10:38:07.376Z,101468.08
2018-04-26T10:40:33.402Z,101478.42
2018-04-26T10:42:59.400Z,101476.41
2018-04-26T10:45:25.425Z,101476.16
2018-04-26T10:47:51.466Z,101493.95
2018-04-26T10:50:17.488Z,101475.31
2018-04-26T10:52:43.607Z,101484.65
2018-04-26T10:55:09.639Z,101476.63
2018-04-26T10:57:35.704Z,101478.47
2018-04-26T11:00:01.832Z,101485.20
2018-04-26T11:02:27.816Z,101483.03
2018-04-26T11:04:53.823Z,101487.92
2018-04-26T11:07:19.849Z,101477.95
2018-04-26T11:09:45.883Z,101479.80
2018-04-26T11:12:11.933Z,101484.29
2018-04-26T11:14:37.980Z,101504.79
2018-04-26T11:17:04.085Z,101489.77
2018-04-26T11:19:30.091Z,101494.95
2018-04-26T11:21:56.183Z,101504.75
2018-04-26T11:24:22.290Z,101499.73
2018-04-26T11:26:48.285Z,101493.17
2018-04-26T11:29:14.317Z,101513.11
2018-04-26T11:31:40.915Z,101513.27
2018-04-26T11:34:06.958Z,101512.03
2018-04-26T11:36:33.345Z,101521.17
2018-04-26T11:38:59.755Z,101517.02
2018-04-26T11:41:25.907Z,101522.95
2018-04-26T11:43:52.113Z,101517.54
2018-04-26T11:46:18.342Z,101525.86
2018-04-26T11:48:44.524Z,101527.20
2018-04-26T11:51:10.739Z,101522.95
2018-04-26T11:53:36.889Z,101519.59
2018-04-26T11:56:02.977Z,101514.83
2018-04-26T11:58:29.024Z,101523.23
2018-04-26T12:00:55.098Z,101522.34
2018-04-26T12:03:21.987Z,101531.85
2018-04-26T12:05:48.097Z,101533.18
2018-04-26T12:08:14.173Z,101536.85
2018-04-26T12:10:40.316Z,101531.63
2018-04-26T12:13:06.518Z,101539.09
2018-04-26T12:15:32.829Z,101531.84
2018-04-26T12:17:59.014Z,101538.27
2018-04-26T12:20:25.025Z,101541.62
2018-04-26T12:22:51.050Z,101545.58
2018-04-26T12:25:17.371Z,101538.18
2018-04-26T12:27:43.398Z,101536.17
2018-04-26T12:30:09.452Z,101539.88
2018-04-26T12:32:35.483Z,101538.10
2018-04-26T12:35:01.484Z,101533.68
2018-04-26T12:37:27.555Z,101533.62
2018-04-26T12:39:53.552Z,101531.58
2018-04-26T12:42:19.673Z,101529.51
2018-04-26T12:44:45.607Z,101541.08
2018-04-26T12:47:11.781Z,101537.02
2018-04-26T12:49:37.767Z,101546.02
2018-04-26T12:52:03.846Z,101530.42
2018-04-26T12:54:29.849Z,101547.01
2018-04-26T12:56:55.825Z,101536.42
2018-04-26T12:59:21.879Z,101548.98
2018-04-26T13:01:48.022Z,101552.80
2018-04-26T13:04:14.013Z,101541.45
2018-04-26T13:06:40.041Z,101548.82
2018-04-26T13:09:06.146Z,101535.73
2018-04-26T13:11:32.175Z,101544.98
2018-04-26T13:13:58.158Z,101541.98
2018-04-26T13:16:24.342Z,101538.58
2018-04-26T13:18:50.489Z,101531.75
2018-04-26T13:21:16.644Z,101533.36
2018-04-26T13:23:42.953Z,101533.48
2018-04-26T13:26:08.969Z,101530.64
2018-04-26T13:28:35.004Z,101519.23
2018-04-26T13:31:01.098Z,101529.68
2018-04-26T13:33:27.100Z,101526.78
2018-04-26T13:35:53.100Z,101539.43
2018-04-26T13:38:19.195Z,101536.16
2018-04-26T13:40:45.223Z,101536.30
2018-04-26T13:43:11.255Z,101533.47
2018-04-26T13:45:37.260Z,101536.25
2018-04-26T13:48:03.344Z,101531.66
2018-04-26T13:50:29.382Z,101536.67
2018-04-26T13:52:56.168Z,101529.83
2018-04-26T13:55:22.180Z,101533.80
2018-04-26T13:57:48.300Z,101527.26
2018-04-26T14:00:14.424Z,101533.84
2018-04-26T14:02:40.471Z,101527.48
2018-04-26T14:05:14.281Z,101529.26
2018-04-26T14:07:40.445Z,101528.34
2018-04-26T14:10:06.853Z,101526.38
2018-04-26T14:12:32.947Z,101526.02
2018-04-26T14:14:59.085Z,101523.74
2018-04-26T14:17:25.141Z,101528.20
2018-04-26T14:19:51.171Z,101530.95
2018-04-26T14:22:17.265Z,101519.53
2018-04-26T14:24:43.375Z,101517.48
2018-04-26T14:27:09.321Z,101510.99
2018-04-26T14:29:35.464Z,101523.50
2018-04-26T14:32:01.399Z,101509.97
2018-04-26T14:34:27.405Z,101504.84
2018-04-26T14:36:53.408Z,101503.18
2018-04-26T14:39:19.448Z,101497.38
2018-04-26T14:41:45.473Z,101499.23
2018-04-26T14:44:11.486Z,101504.06
2018-04-26T14:46:37.501Z,101502.73
2018-04-26T14:49:03.525Z,101502.33
2018-04-26T14:51:29.546Z,101498.89
2018-04-26T14:53:55.570Z,101497.59
2018-04-26T14:56:21.599Z,101497.42
2018-04-26T14:58:47.651Z,101495.48
2018-04-26T15:01:13.622Z,101495.55
2018-04-26T15:03:39.633Z,101497.64
2018-04-26T15:06:05.664Z,101494.86
2018-04-26T15:08:31.668Z,101499.14
2018-04-26T15:10:57.709Z,101493.29
2018-04-26T15:13:23.710Z,101485.04
2018-04-26T15:15:50.080Z,101481.30
2018-04-26T15:18:16.122Z,101493.25
2018-04-26T15:20:42.228Z,101484.56
2018-04-26T15:23:08.318Z,101490.02
2018-04-26T15:25:34.874Z,101479.85
2018-04-26T15:28:00.892Z,101487.81
2018-04-26T15:30:27.528Z,101476.63
2018-04-26T15:32:53.583Z,101475.30
2018-04-26T15:35:19.615Z,101473.31
2018-04-26T15:37:45.630Z,101475.24
2018-04-26T15:40:11.630Z,101464.41
2018-04-26T15:42:37.678Z,101471.06
2018-04-26T15:45:03.767Z,101471.52
2018-04-26T15:47:30.245Z,101475.44
2018-04-26T15:49:56.306Z,101471.35
2018-04-26T15:52:40.621Z,101475.78
2018-04-26T15:55:18.976Z,101479.98
2018-04-26T16:01:09.893Z,101480.80
2018-04-26T16:03:48.914Z,101475.88
2018-04-26T16:06:31.161Z,101478.45
2018-04-26T16:09:09.380Z,101472.66
2018-04-26T16:11:47.627Z,101480.24
2018-04-26T16:14:32.045Z,101472.12
2018-04-26T16:17:24.680Z,101467.03
2018-04-26T16:20:09.495Z,101464.79
2018-04-26T16:26:00.425Z,101459.50
2018-04-26T16:31:58.954Z,101464.34
2018-04-26T16:34:49.091Z,101468.13
2018-04-26T16:37:33.480Z,101463.77
2018-04-26T16:39:59.597Z,101481.89
2018-04-26T16:42:25.642Z,101478.52
2018-04-26T16:44:51.701Z,101476.88
2018-04-26T16:47:17.792Z,101487.69
2018-04-26T16:49:43.975Z,101492.31
2018-04-26T16:52:10.016Z,101491.84
2018-04-26T16:54:36.088Z,101487.02
2018-04-26T16:57:02.143Z,101480.09
2018-04-26T16:59:28.201Z,101486.59
2018-04-26T17:01:54.430Z,101488.72
2018-04-26T17:04:20.856Z,101486.66
2018-04-26T17:06:46.976Z,101484.45
2018-04-26T17:09:12.997Z,101481.57
2018-04-26T17:11:39.163Z,101481.51
2018-04-26T17:14:05.224Z,101473.73
2018-04-26T17:16:31.255Z,101473.73
2018-04-26T17:18:57.253Z,101477.30
2018-04-26T17:21:23.297Z,101478.82
2018-04-26T17:23:49.374Z,101476.55
2018-04-26T17:26:15.397Z,101461.72
2018-04-26T17:28:41.465Z,101462.06
2018-04-26T17:31:07.514Z,101454.70
2018-04-26T17:33:33.577Z,101462.25
2018-04-26T17:35:59.588Z,101460.45
2018-04-26T17:38:25.597Z,101460.75
2018-04-26T17:40:51.598Z,101471.64
2018-04-26T17:43:17.665Z,101464.11
2018-04-26T17:45:43.788Z,101466.24
2018-04-26T17:48:09.823Z,101469.77
2018-04-26T17:50:35.869Z,101472.64
2018-04-26T17:53:01.937Z,101470.98
2018-04-26T17:55:27.959Z,101472.48
2018-04-26T17:57:54.005Z,101474.95
2018-04-26T18:00:20.038Z,101470.10
2018-04-26T18:02:46.182Z,101467.87
2018-04-26T18:05:12.193Z,101471.98
2018-04-26T18:07:38.204Z,101477.84
2018-04-26T18:10:04.254Z,101469.98
2018-04-26T18:12:30.326Z,101474.72
2018-04-26T18:14:56.436Z,101471.49
2018-04-26T18:17:22.718Z,101473.07
2018-04-26T18:19:49.285Z,101473.91
2018-04-26T18:22:15.374Z,101469.64
2018-04-26T18:24:41.400Z,101470.55
2018-04-26T18:27:07.449Z,101463.04
2018-04-26T18:29:33.453Z,101464.66
2018-04-26T18:31:59.513Z,101466.42
2018-04-26T18:34:25.559Z,101465.15
2018-04-26T18:36:51.709Z,101462.56
2018-04-26T18:39:17.756Z,101461.94
2018-04-26T18:41:43.790Z,101465.32
2018-04-26T18:44:09.779Z,101466.32
2018-04-26T18:46:35.860Z,101467.17
2018-04-26T18:49:01.907Z,101455.92
2018-04-26T18:51:27.917Z,101457.02
2018-04-26T18:53:53.966Z,101464.13
2018-04-26T18:56:19.986Z,101455.41
2018-04-26T18:58:46.012Z,101461.75
2018-04-26T19:01:12.138Z,101467.66
2018-04-26T19:03:38.223Z,101470.55
2018-04-26T19:06:04.322Z,101468.52
2018-04-26T19:08:30.367Z,101457.19
2018-04-26T19:10:56.485Z,101468.59
2018-04-26T19:13:22.691Z,101461.86
2018-04-26T19:15:48.713Z,101462.50
2018-04-26T19:18:14.832Z,101461.45
2018-04-26T19:20:40.903Z,101463.98
2018-04-26T19:23:07.059Z,101465.45
2018-04-26T19:25:33.298Z,101464.72
2018-04-26T19:27:59.337Z,101466.69
2018-04-26T19:30:25.377Z,101473.92
2018-04-26T19:32:51.450Z,101469.14
2018-04-26T19:35:17.448Z,101476.63
2018-04-26T19:37:43.476Z,101473.59
2018-04-26T19:40:09.509Z,101474.58
2018-04-26T19:42:35.552Z,101481.46
2018-04-26T19:45:01.539Z,101480.96
2018-04-26T19:47:27.572Z,101483.98
2018-04-26T19:49:53.597Z,101482.86
2018-04-26T19:52:19.602Z,101484.33
2018-04-26T19:54:45.672Z,101481.30
2018-04-26T19:57:11.729Z,101479.55
2018-04-26T19:59:38.626Z,101487.63
2018-04-26T20:02:04.715Z,101482.49
2018-04-26T20:04:30.844Z,101482.62
2018-04-26T20:06:56.897Z,101481.50
2018-04-26T20:09:22.993Z,101474.61
2018-04-26T20:11:49.187Z,101470.17
2018-04-26T20:14:15.216Z,101472.03
2018-04-26T20:16:41.298Z,101471.33
2018-04-26T20:19:07.298Z,101468.59
2018-04-26T20:21:33.529Z,101466.97
2018-04-26T20:23:59.600Z,101464.02
2018-04-26T20:26:25.646Z,101459.73
2018-04-26T20:28:51.874Z,101455.15
2018-04-26T20:31:17.924Z,101457.80
2018-04-26T20:33:43.957Z,101459.08
2018-04-26T20:36:10.655Z,101463.84
2018-04-26T20:38:36.672Z,101459.08
2018-04-26T20:41:02.788Z,101460.33
2018-04-26T20:43:28.997Z,101466.22
2018-04-26T20:45:55.068Z,101451.25
2018-04-26T20:48:33.379Z,101447.61
2018-04-26T20:50:59.500Z,101452.18
2018-04-26T20:53:25.620Z,101440.72
2018-04-26T20:55:51.743Z,101444.80
2018-04-26T20:58:17.771Z,101441.59
2018-04-26T21:00:43.850Z,101441.31
2018-04-26T21:03:10.095Z,101443.56
2018-04-26T21:05:36.259Z,101447.56
2018-04-26T21:08:02.376Z,101444.27
2018-04-26T21:10:28.487Z,101445.94
2018-04-26T21:12:54.581Z,101438.91
2018-04-26T21:15:20.721Z,101434.87
2018-04-26T21:17:47.756Z,101437.25
2018-04-26T21:20:13.914Z,101436.83
2018-04-26T21:22:40.002Z,101437.00
2018-04-26T21:25:06.102Z,101440.27
2018-04-26T21:27:32.226Z,101444.35
2018-04-26T21:29:58.284Z,101441.75
2018-04-26T21:32:24.449Z,101439.64
2018-04-26T21:34:50.611Z,101446.66
2018-04-26T21:37:16.699Z,101445.89
2018-04-26T21:39:42.904Z,101440.69
2018-04-26T21:42:09.063Z,101439.84
2018-04-26T21:44:35.269Z,101442.22
2018-04-26T21:47:01.438Z,101444.05
2018-04-26T21:49:27.437Z,101438.02
2018-04-26T21:51:59.592Z,101434.28
2018-04-26T21:54:31.857Z,101426.97
2018-04-26T21:57:04.243Z,101427.17
2018-04-26T21:59:36.455Z,101425.98
2018-04-26T22:02:09.260Z,101426.73
2018-04-26T22:04:41.391Z,101423.48
2018-04-26T22:07:07.549Z,101423.07
2018-04-26T22:09:33.642Z,101424.28
2018-04-26T22:11:59.707Z,101427.48
2018-04-26T22:14:25.829Z,101421.73
2018-04-26T22:16:51.901Z,101427.00
2018-04-26T22:19:18.036Z,101422.08
2018-04-26T22:21:44.130Z,101411.81
2018-04-26T22:24:10.224Z,101416.59
2018-04-26T22:26:36.331Z,101421.30
2018-04-26T22:29:02.457Z,101420.53
2018-04-26T22:31:28.749Z,101418.97
2018-04-26T22:33:54.987Z,101421.23
2018-04-26T22:36:21.068Z,101422.35
2018-04-26T22:38:47.141Z,101413.48
2018-04-26T22:41:13.312Z,101415.99
2018-04-26T22:43:39.468Z,101419.15
2018-04-26T22:46:05.541Z,101417.04
2018-04-26T22:48:31.669Z,101412.19
2018-04-26T22:50:57.744Z,101410.84
2018-04-26T22:53:23.849Z,101413.28
2018-04-26T22:55:49.967Z,101405.28
2018-04-26T22:58:16.059Z,101406.00
2018-04-26T23:00:42.123Z,101406.98
2018-04-26T23:03:08.294Z,101403.11
2018-04-26T23:05:34.402Z,101401.40
2018-04-26T23:08:00.500Z,101403.16
2018-04-26T23:10:26.671Z,101407.28
2018-04-26T23:12:52.831Z,101407.77
2018-04-26T23:15:19.026Z,101405.38
2018-04-26T23:17:52.140Z,101398.68
2018-04-26T23:20:18.267Z,101397.52
2018-04-26T23:22:44.358Z,101401.59
2018-04-26T23:25:10.467Z,101401.59
2018-04-26T23:27:36.604Z,101398.63
2018-04-26T23:30:02.718Z,101399.02
2018-04-26T23:32:29.104Z,101401.78
2018-04-26T23:34:55.447Z,101399.67
2018-04-26T23:37:21.545Z,101393.92
2018-04-26T23:39:47.692Z,101389.56
2018-04-26T23:42:13.855Z,101386.67
2018-04-26T23:44:40.078Z,101397.56
2018-04-26T23:47:06.168Z,101396.42
2018-04-26T23:49:32.297Z,101396.00
2018-04-26T23:51:58.319Z,101394.21
2018-04-26T23:54:24.385Z,101386.58
2018-04-26T23:56:50.600Z,101387.55
2018-04-26T23:59:16.687Z,101384.69
